createdAt,value
2024-03-14T00:01:13.806Z,37.90
2024-03-14T00:03:41.362Z,44.10
2024-03-14T00:06:10.192Z,48.00
2024-03-14T00:08:37.928Z,53.30
2024-03-14T00:11:05.638Z,49.00
2024-03-14T00:13:34.956Z,45.50
2024-03-14T00:16:02.657Z,40.30
2024-03-14T00:18:32.678Z,40.60
2024-03-14T00:21:00.777Z,40.50
2024-03-14T00:23:28.496Z,38.20
2024-03-14T00:25:57.392Z,40.90
2024-03-14T00:28:24.942Z,36.90
2024-03-14T00:30:52.304Z,32.20
2024-03-14T00:33:21.250Z,29.40
2024-03-14T00:35:49.283Z,24.70
2024-03-14T00:38:16.930Z,22.90
2024-03-14T00:40:45.921Z,21.00
2024-03-14T00:43:13.777Z,21.70
2024-03-14T00:45:41.450Z,24.30
2024-03-14T00:48:10.329Z,24.60
2024-03-14T00:50:38.102Z,26.90
2024-03-14T00:53:05.679Z,23.80
2024-03-14T00:55:34.542Z,26.80
2024-03-14T00:58:02.515Z,24.90
2024-03-14T01:00:30.199Z,24.30
2024-03-14T01:02:59.207Z,26.20
2024-03-14T01:05:26.739Z,29.00
2024-03-14T01:07:54.293Z,25.60
2024-03-14T01:10:23.416Z,27.20
2024-03-14T01:12:50.937Z,26.70
2024-03-14T01:15:18.657Z,23.40
2024-03-14T01:17:47.802Z,21.30
2024-03-14T01:20:15.560Z,22.10
2024-03-14T01:22:43.140Z,22.50
2024-03-14T01:25:11.920Z,22.70
2024-03-14T01:27:39.624Z,25.40
2024-03-14T01:30:07.461Z,26.90
2024-03-14T01:32:36.504Z,27.90
2024-03-14T01:35:04.093Z,27.40
2024-03-14T01:37:31.758Z,29.60
2024-03-14T01:40:00.535Z,29.60
2024-03-14T01:42:28.237Z,29.60
2024-03-14T01:44:55.921Z,30.00
2024-03-14T01:47:24.764Z,50.10
2024-03-14T01:49:52.316Z,35.50
2024-03-14T01:52:19.951Z,40.70
2024-03-14T01:54:48.868Z,36.60
2024-03-14T01:57:16.628Z,31.20
2024-03-14T01:59:44.600Z,31.10
2024-03-14T02:02:13.482Z,29.60
2024-03-14T02:04:41.039Z,32.90
2024-03-14T02:07:08.806Z,30.60
2024-03-14T02:09:37.694Z,32.20
2024-03-14T02:12:05.401Z,30.90
2024-03-14T02:14:33.228Z,28.50
2024-03-14T02:17:02.007Z,30.60
2024-03-14T02:19:29.881Z,31.30
2024-03-14T02:21:57.471Z,29.70
2024-03-14T02:24:26.347Z,27.80
2024-03-14T02:26:53.916Z,24.20
2024-03-14T02:29:21.344Z,22.90
2024-03-14T02:31:50.235Z,26.90
2024-03-14T02:34:17.796Z,23.00
2024-03-14T02:36:45.469Z,21.30
2024-03-14T02:39:14.525Z,21.40
2024-03-14T02:41:42.322Z,21.70
2024-03-14T02:44:10.287Z,24.40
2024-03-14T02:46:39.075Z,23.40
2024-03-14T02:49:06.747Z,23.10
2024-03-14T02:51:34.290Z,24.20
2024-03-14T02:54:03.238Z,22.50
2024-03-14T02:56:30.857Z,22.70
2024-03-14T02:58:58.504Z,24.50
2024-03-14T03:01:27.300Z,23.30
2024-03-14T03:03:54.960Z,23.90
2024-03-14T03:06:22.687Z,21.20
2024-03-14T03:08:52.073Z,22.90
2024-03-14T03:11:19.708Z,22.20
2024-03-14T03:13:47.234Z,21.60
2024-03-14T03:16:16.131Z,21.90
2024-03-14T03:18:43.806Z,22.70
2024-03-14T03:21:11.603Z,27.00
2024-03-14T03:23:40.439Z,28.30
2024-03-14T03:26:08.002Z,24.60
2024-03-14T03:28:35.869Z,24.10
2024-03-14T03:31:04.759Z,26.00
2024-03-14T03:33:32.410Z,22.10
2024-03-14T03:36:00.119Z,23.90
2024-03-14T03:38:28.981Z,22.50
2024-03-14T03:40:56.627Z,23.50
2024-03-14T03:43:24.188Z,22.90
2024-03-14T03:45:52.977Z,20.90
2024-03-14T03:48:21.069Z,20.50
2024-03-14T03:50:48.728Z,21.40
2024-03-14T03:53:17.600Z,23.10
2024-03-14T03:55:45.163Z,21.40
2024-03-14T03:58:12.825Z,18.50
2024-03-14T04:00:41.738Z,20.10
2024-03-14T04:03:10.891Z,20.80
2024-03-14T04:05:40.431Z,19.30
2024-03-14T04:08:08.603Z,20.60
2024-03-14T04:10:36.376Z,21.10
2024-03-14T04:13:05.243Z,20.40
2024-03-14T04:15:32.911Z,22.60
2024-03-14T04:18:00.664Z,22.50
2024-03-14T04:20:29.798Z,22.30
2024-03-14T04:22:57.526Z,25.10
2024-03-14T04:25:25.089Z,32.40
2024-03-14T04:27:54.000Z,26.10
2024-03-14T04:30:21.545Z,23.10
2024-03-14T04:32:49.242Z,22.00
2024-03-14T04:35:18.323Z,23.70
2024-03-14T04:37:45.844Z,23.30
2024-03-14T04:40:13.454Z,24.80
2024-03-14T04:42:42.420Z,23.00
2024-03-14T04:45:10.158Z,23.30
2024-03-14T04:47:37.837Z,26.20
2024-03-14T04:50:06.707Z,25.30
2024-03-14T04:52:34.277Z,23.60
2024-03-14T04:55:01.754Z,21.70
2024-03-14T04:57:30.647Z,22.80
2024-03-14T04:59:58.253Z,26.40
2024-03-14T05:02:25.946Z,26.40
2024-03-14T05:04:54.839Z,27.60
2024-03-14T05:07:22.388Z,28.70
2024-03-14T05:09:50.372Z,29.60
2024-03-14T05:12:19.190Z,27.80
2024-03-14T05:14:47.015Z,28.40
2024-03-14T05:17:14.672Z,27.70
2024-03-14T05:19:43.470Z,27.50
2024-03-14T05:22:11.225Z,28.30
2024-03-14T05:24:38.790Z,45.50
2024-03-14T05:27:07.719Z,32.80
2024-03-14T05:29:35.743Z,33.30
2024-03-14T05:32:03.411Z,28.70
2024-03-14T05:34:32.200Z,37.60
2024-03-14T05:36:59.863Z,31.10
2024-03-14T05:39:27.230Z,52.70
2024-03-14T05:41:56.230Z,26.30
2024-03-14T05:44:23.759Z,24.80
2024-03-14T05:46:51.328Z,26.50
2024-03-14T05:49:20.019Z,26.80
2024-03-14T05:51:47.973Z,25.50
2024-03-14T05:54:15.578Z,26.40
2024-03-14T05:56:44.526Z,23.40
2024-03-14T05:59:12.184Z,21.40
2024-03-14T06:01:39.903Z,20.60
2024-03-14T06:04:08.744Z,23.40
2024-03-14T06:06:36.317Z,24.20
2024-03-14T06:09:04.005Z,30.40
2024-03-14T06:11:33.084Z,33.00
2024-03-14T06:14:01.041Z,35.00
2024-03-14T06:16:28.590Z,33.60
2024-03-14T06:18:57.561Z,36.10
2024-03-14T06:21:25.450Z,33.40
2024-03-14T06:23:53.244Z,36.30
2024-03-14T06:26:22.097Z,37.70
2024-03-14T06:28:49.758Z,33.80
2024-03-14T06:31:17.342Z,35.00
2024-03-14T06:33:46.641Z,31.30
2024-03-14T06:36:14.680Z,31.20
2024-03-14T06:38:44.702Z,28.90
2024-03-14T06:41:12.261Z,30.40
2024-03-14T06:43:39.821Z,30.40
2024-03-14T06:46:08.712Z,29.40
2024-03-14T06:48:36.328Z,29.30
2024-03-14T06:51:04.185Z,26.20
2024-03-14T06:53:33.033Z,22.50
2024-03-14T06:56:00.998Z,30.30
2024-03-14T06:58:28.689Z,27.70
2024-03-14T07:00:57.821Z,27.00
2024-03-14T07:03:25.553Z,31.40
2024-03-14T07:05:53.308Z,30.80
2024-03-14T07:08:22.265Z,31.10
2024-03-14T07:10:49.896Z,31.00
2024-03-14T07:13:17.490Z,34.40
2024-03-14T07:15:46.695Z,31.30
2024-03-14T07:18:14.334Z,27.60
2024-03-14T07:20:42.125Z,27.80
2024-03-14T07:23:10.905Z,28.70
2024-03-14T07:25:38.466Z,28.90
2024-03-14T07:28:06.129Z,29.00
2024-03-14T07:30:35.015Z,27.80
2024-03-14T07:33:02.890Z,32.30
2024-03-14T07:35:30.956Z,30.60
2024-03-14T07:38:02.103Z,27.80
2024-03-14T07:40:29.959Z,30.50
2024-03-14T07:42:58.851Z,30.30
2024-03-14T07:45:26.442Z,31.00
2024-03-14T07:47:54.697Z,30.10
2024-03-14T07:50:23.806Z,33.00
2024-03-14T07:52:51.452Z,28.90
2024-03-14T07:55:19.002Z,28.80
2024-03-14T07:57:48.415Z,29.50
2024-03-14T08:00:16.024Z,31.20
2024-03-14T08:02:46.179Z,28.90
2024-03-14T08:05:13.864Z,29.40
2024-03-14T08:07:41.507Z,30.20
2024-03-14T08:10:10.398Z,57.90
2024-03-14T08:12:38.094Z,30.40
2024-03-14T08:15:05.738Z,26.70
2024-03-14T08:17:35.060Z,27.50
2024-03-14T08:20:02.679Z,26.70
2024-03-14T08:22:32.489Z,27.30
2024-03-14T08:25:00.250Z,26.00
2024-03-14T08:27:27.821Z,26.00
2024-03-14T08:29:56.832Z,25.50
2024-03-14T08:32:24.474Z,29.40
2024-03-14T08:34:52.129Z,28.70
2024-03-14T08:37:21.367Z,26.10
2024-03-14T08:39:49.125Z,29.20
2024-03-14T08:42:16.925Z,25.20
2024-03-14T08:44:45.845Z,73.90
2024-03-14T08:47:13.615Z,27.30
2024-03-14T08:49:41.174Z,23.30
2024-03-14T08:52:10.067Z,22.70
2024-03-14T08:54:37.835Z,22.90
2024-03-14T08:57:06.230Z,23.90
2024-03-14T08:59:36.036Z,25.10
2024-03-14T09:02:03.575Z,24.70
2024-03-14T09:04:31.240Z,24.50
2024-03-14T09:07:00.157Z,21.20
2024-03-14T09:09:27.652Z,21.70
2024-03-14T09:11:55.426Z,22.20
2024-03-14T09:14:24.449Z,23.40
2024-03-14T09:16:52.106Z,19.70
2024-03-14T09:19:19.664Z,18.50
2024-03-14T09:21:48.963Z,19.60
2024-03-14T09:24:16.779Z,18.80
2024-03-14T09:26:44.772Z,20.10
2024-03-14T09:29:13.815Z,19.20
2024-03-14T09:31:41.346Z,18.60
2024-03-14T09:34:09.141Z,20.00
2024-03-14T09:36:38.123Z,20.40
2024-03-14T09:39:05.722Z,24.60
2024-03-14T09:41:34.242Z,22.00
2024-03-14T09:44:03.669Z,22.60
2024-03-14T09:46:31.209Z,19.90
2024-03-14T09:48:58.797Z,17.50
2024-03-14T09:51:27.702Z,18.90
2024-03-14T09:53:55.574Z,16.20
2024-03-14T09:56:23.565Z,17.50
2024-03-14T09:58:54.114Z,12.80
2024-03-14T10:01:22.139Z,15.40
2024-03-14T10:03:51.510Z,14.50
2024-03-14T10:06:20.257Z,12.40
2024-03-14T10:08:50.100Z,11.50
2024-03-14T10:11:18.170Z,12.80
2024-03-14T10:13:47.977Z,15.30
2024-03-14T10:16:15.642Z,13.90
2024-03-14T10:18:43.383Z,15.50
2024-03-14T10:21:12.422Z,19.10
2024-03-14T10:23:40.267Z,15.10
2024-03-14T10:26:08.138Z,11.40
2024-03-14T10:28:37.024Z,11.10
2024-03-14T10:31:04.683Z,13.80
2024-03-14T10:33:33.021Z,13.60
2024-03-14T10:36:02.186Z,13.30
2024-03-14T10:38:30.020Z,14.00
2024-03-14T10:40:57.685Z,13.40
2024-03-14T10:43:26.475Z,14.60
2024-03-14T10:45:54.535Z,14.60
2024-03-14T10:48:22.449Z,16.30
2024-03-14T10:50:51.449Z,14.40
2024-03-14T10:53:19.064Z,14.70
2024-03-14T10:55:46.746Z,11.60
2024-03-14T10:58:16.025Z,14.70
2024-03-14T11:00:43.718Z,14.50
2024-03-14T11:03:11.388Z,14.60
2024-03-14T11:05:40.253Z,14.20
2024-03-14T11:08:08.213Z,14.50
2024-03-14T11:10:35.762Z,14.60
2024-03-14T11:13:04.648Z,14.20
2024-03-14T11:15:32.414Z,12.80
2024-03-14T11:18:00.279Z,16.20
2024-03-14T11:20:29.388Z,14.90
2024-03-14T11:22:56.933Z,15.60
2024-03-14T11:25:24.514Z,15.90
2024-03-14T11:27:53.696Z,15.60
2024-03-14T11:30:21.400Z,16.80
2024-03-14T11:32:49.148Z,15.00
2024-03-14T11:35:18.111Z,16.30
2024-03-14T11:37:45.671Z,14.90
2024-03-14T11:40:13.335Z,14.00
2024-03-14T11:42:42.196Z,12.60
2024-03-14T11:45:10.340Z,13.60
2024-03-14T11:47:38.288Z,13.20
2024-03-14T11:50:07.272Z,13.80
2024-03-14T11:52:34.935Z,13.90
2024-03-14T11:55:02.583Z,14.60
2024-03-14T11:57:31.526Z,14.90
2024-03-14T12:00:06.691Z,16.50
2024-03-14T12:02:37.199Z,15.20
2024-03-14T12:05:04.999Z,15.90
2024-03-14T12:07:32.662Z,14.20
2024-03-14T12:10:01.551Z,16.10
2024-03-14T12:12:29.130Z,14.10
2024-03-14T12:14:56.788Z,14.00
2024-03-14T12:17:26.176Z,12.80
2024-03-14T12:19:53.834Z,13.20
2024-03-14T12:22:23.659Z,12.70
2024-03-14T12:24:51.319Z,18.40
2024-03-14T12:27:19.218Z,14.40
2024-03-14T12:29:48.179Z,14.70
2024-03-14T12:32:15.751Z,15.00
2024-03-14T12:34:43.422Z,14.90
2024-03-14T12:37:12.283Z,13.70
2024-03-14T12:39:39.875Z,14.30
2024-03-14T12:42:07.632Z,13.70
2024-03-14T12:44:36.593Z,13.00
2024-03-14T12:47:04.163Z,13.20
2024-03-14T12:49:31.619Z,13.20
2024-03-14T12:52:00.517Z,13.80
2024-03-14T12:54:28.109Z,13.90
2024-03-14T12:56:55.876Z,10.40
2024-03-14T12:59:27.721Z,14.70
2024-03-14T13:02:01.098Z,12.80
2024-03-14T13:04:28.648Z,12.30
2024-03-14T13:06:56.312Z,13.60
2024-03-14T13:09:24.998Z,12.90
2024-03-14T13:11:52.655Z,14.90
2024-03-14T13:14:20.525Z,14.00
2024-03-14T13:16:49.403Z,15.50
2024-03-14T13:19:17.066Z,14.30
2024-03-14T13:21:44.686Z,16.30
2024-03-14T13:24:13.665Z,39.10
2024-03-14T13:26:41.294Z,22.80
2024-03-14T13:29:08.942Z,13.90
2024-03-14T13:31:37.727Z,18.50
2024-03-14T13:34:05.353Z,41.60
2024-03-14T13:36:33.478Z,33.80
2024-03-14T13:39:02.362Z,17.80
2024-03-14T13:41:30.228Z,16.00
2024-03-14T13:43:57.987Z,15.60
2024-03-14T13:46:26.768Z,14.80
2024-03-14T13:48:54.477Z,15.20
2024-03-14T13:51:22.258Z,15.10
2024-03-14T13:53:51.202Z,14.50
2024-03-14T13:56:18.746Z,14.60
2024-03-14T13:58:46.715Z,14.20
2024-03-14T14:01:15.635Z,13.90
2024-03-14T14:03:43.322Z,13.40
2024-03-14T14:06:11.217Z,14.80
2024-03-14T14:08:40.564Z,15.50
2024-03-14T14:11:08.348Z,13.20
2024-03-14T14:13:36.080Z,14.20
2024-03-14T14:16:04.846Z,13.60
2024-03-14T14:18:32.784Z,13.50
2024-03-14T14:21:00.618Z,14.20
2024-03-14T14:23:29.502Z,15.10
2024-03-14T14:25:57.140Z,15.00
2024-03-14T14:28:24.801Z,16.20
2024-03-14T14:30:53.489Z,17.40
2024-03-14T14:33:21.197Z,17.90
2024-03-14T14:35:49.106Z,21.70
2024-03-14T14:38:17.907Z,18.20
2024-03-14T14:43:49.167Z,17.70
2024-03-14T14:47:14.942Z,18.30
2024-03-14T15:08:10.203Z,21.60
2024-03-14T15:10:40.900Z,25.20
2024-03-14T15:13:14.267Z,26.70
2024-03-14T15:15:49.959Z,22.30
2024-03-14T15:18:22.247Z,18.00
2024-03-14T15:20:53.217Z,16.10
2024-03-14T15:23:28.858Z,15.30
2024-03-14T15:26:05.815Z,16.20
2024-03-14T15:28:38.410Z,16.70
2024-03-14T15:31:12.524Z,16.30
2024-03-14T15:33:45.493Z,16.00
2024-03-14T15:36:19.547Z,16.00
2024-03-14T15:38:52.265Z,15.40
2024-03-14T15:41:23.141Z,15.40
2024-03-14T15:43:55.310Z,16.60
2024-03-14T15:46:26.448Z,17.00
2024-03-14T15:48:58.515Z,18.10
2024-03-14T15:51:29.383Z,17.70
2024-03-14T15:54:01.556Z,16.90
2024-03-14T15:56:34.606Z,18.20
2024-03-14T15:59:06.978Z,18.20
2024-03-14T16:04:10.421Z,16.10
2024-03-14T16:06:41.611Z,17.40
2024-03-14T16:09:16.187Z,16.90
2024-03-14T16:11:49.309Z,18.10
2024-03-14T16:14:20.288Z,18.50
2024-03-14T16:16:52.324Z,18.60
2024-03-14T16:19:25.240Z,20.90
2024-03-14T16:21:57.553Z,19.50
2024-03-14T16:24:29.259Z,19.60
2024-03-14T16:27:01.268Z,18.60
2024-03-14T16:29:32.354Z,18.60
2024-03-14T16:32:05.463Z,18.40
2024-03-14T16:34:36.297Z,18.30
2024-03-14T16:37:08.617Z,18.30
2024-03-14T16:39:39.479Z,18.00
2024-03-14T16:42:11.892Z,18.00
2024-03-14T16:44:42.920Z,18.50
2024-03-14T16:47:14.876Z,17.80
2024-03-14T16:49:46.332Z,19.10
2024-03-14T16:52:18.290Z,21.00
2024-03-14T16:54:49.092Z,24.60
2024-03-14T16:57:23.866Z,25.80
2024-03-14T16:59:58.077Z,31.60
2024-03-14T17:02:29.008Z,33.60
2024-03-14T17:05:02.628Z,33.40
2024-03-14T17:07:33.447Z,31.10
2024-03-14T17:10:05.887Z,29.10
2024-03-14T17:12:36.751Z,28.30
2024-03-14T17:15:09.410Z,27.80
2024-03-14T17:20:14.247Z,25.70
2024-03-14T17:22:45.934Z,27.30
2024-03-14T17:25:20.488Z,21.50
2024-03-14T17:27:56.177Z,18.80
2024-03-14T17:30:29.305Z,19.10
2024-03-14T17:33:00.434Z,21.20
2024-03-14T17:35:33.228Z,21.20
2024-03-14T17:38:03.951Z,22.40
2024-03-14T17:40:36.020Z,23.70
2024-03-14T17:43:12.624Z,26.30
2024-03-14T17:45:44.891Z,27.80
2024-03-14T17:48:15.754Z,28.70
2024-03-14T17:50:47.861Z,33.00
2024-03-14T17:53:20.847Z,34.50
2024-03-14T17:55:52.811Z,33.80
2024-03-14T17:58:23.653Z,34.70
2024-03-14T18:00:55.925Z,34.50
2024-03-14T18:03:28.442Z,36.30
2024-03-14T18:06:00.573Z,39.40
2024-03-14T18:08:31.405Z,38.60
2024-03-14T18:11:05.629Z,38.80
2024-03-14T18:13:40.865Z,41.80
2024-03-14T18:16:14.378Z,40.60
2024-03-14T18:18:46.024Z,49.70
2024-03-14T18:21:18.188Z,47.60
2024-03-14T18:23:49.005Z,44.30
2024-03-14T18:26:24.148Z,44.30
2024-03-14T18:28:57.644Z,45.30
2024-03-14T18:31:37.380Z,45.40
2024-03-14T18:34:11.076Z,42.30
2024-03-14T18:36:43.259Z,40.20
2024-03-14T18:39:15.469Z,42.20
2024-03-14T18:41:48.410Z,37.90
2024-03-14T18:44:23.034Z,40.60
2024-03-14T18:46:57.858Z,39.00
2024-03-14T18:49:29.418Z,47.00
2024-03-14T18:52:01.651Z,41.80
2024-03-14T18:54:42.582Z,41.00
2024-03-14T18:59:49.043Z,32.00
2024-03-14T19:02:22.904Z,31.30
2024-03-14T19:04:54.164Z,28.00
2024-03-14T19:07:26.462Z,27.60
2024-03-14T19:09:57.209Z,31.40
2024-03-14T19:12:29.372Z,25.70
2024-03-14T19:15:00.429Z,21.80
2024-03-14T19:17:32.592Z,23.70
2024-03-14T19:20:06.593Z,28.00
2024-03-14T19:22:39.233Z,27.40
2024-03-14T19:25:11.730Z,26.50
2024-03-14T19:27:43.730Z,25.30
2024-03-14T19:30:15.720Z,28.20
2024-03-14T19:32:50.531Z,26.00
2024-03-14T19:35:23.591Z,27.60
2024-03-14T19:37:54.413Z,28.10
2024-03-14T19:40:26.999Z,26.90
2024-03-14T19:42:59.290Z,22.10
2024-03-14T19:45:32.984Z,22.20
2024-03-14T19:48:04.552Z,19.30
2024-03-14T19:50:37.024Z,19.30
2024-03-14T19:53:08.232Z,19.00
2024-03-14T19:55:40.399Z,18.20
2024-03-14T19:58:13.587Z,18.20
2024-03-14T20:00:47.134Z,17.90
2024-03-14T20:03:18.798Z,18.80
2024-03-14T20:05:51.132Z,18.20
2024-03-14T20:08:22.231Z,18.90
2024-03-14T20:10:54.953Z,18.60
2024-03-14T20:13:27.622Z,18.00
2024-03-14T20:15:59.867Z,19.30
2024-03-14T20:18:30.958Z,19.50
2024-03-14T20:21:04.488Z,18.60
2024-03-14T20:23:35.172Z,18.80
2024-03-14T20:26:09.588Z,18.10
2024-03-14T20:28:40.675Z,17.60
2024-03-14T20:31:12.835Z,17.60
2024-03-14T20:33:44.744Z,19.30
2024-03-14T20:36:17.177Z,17.30
2024-03-14T20:38:49.083Z,18.80
2024-03-14T20:41:24.744Z,18.60
2024-03-14T20:43:57.522Z,19.80
2024-03-14T20:46:28.525Z,21.10
2024-03-14T20:49:00.814Z,17.70
2024-03-14T20:51:31.778Z,18.40
2024-03-14T20:54:05.976Z,18.00
2024-03-14T20:56:50.341Z,15.40
2024-03-14T20:59:25.173Z,14.80
2024-03-14T21:01:58.161Z,14.90
2024-03-14T21:04:29.889Z,15.50
2024-03-14T21:07:03.623Z,16.30
2024-03-14T21:09:34.347Z,19.00
2024-03-14T21:12:09.406Z,19.30
2024-03-14T21:14:43.178Z,18.00
2024-03-14T21:17:13.811Z,21.30
2024-03-14T21:19:46.901Z,21.60
2024-03-14T21:22:17.943Z,20.70
2024-03-14T21:24:50.722Z,21.40
2024-03-14T21:27:24.820Z,18.60
2024-03-14T21:29:56.913Z,18.10
2024-03-14T21:32:28.042Z,19.20
2024-03-14T21:35:00.116Z,22.00
2024-03-14T21:37:32.253Z,22.50
2024-03-14T21:40:07.133Z,21.40
2024-03-14T21:42:40.802Z,21.20
2024-03-14T21:45:12.204Z,19.30
2024-03-14T21:47:45.282Z,20.10
2024-03-14T21:50:18.285Z,22.10
2024-03-14T21:52:51.420Z,20.30
2024-03-14T21:55:22.989Z,22.20
2024-03-14T21:57:57.239Z,28.50
2024-03-14T22:00:31.048Z,31.30
2024-03-14T22:03:02.315Z,30.00
2024-03-14T22:05:34.751Z,32.30
2024-03-14T22:08:06.163Z,25.40
2024-03-14T22:10:38.432Z,28.40
2024-03-14T22:13:11.218Z,29.50
2024-03-14T22:15:45.155Z,27.40
2024-03-14T22:18:19.593Z,29.00
2024-03-14T22:20:53.349Z,29.00
2024-03-14T22:23:24.077Z,31.30
2024-03-14T22:25:55.944Z,30.00
2024-03-14T22:28:26.888Z,28.90
2024-03-14T22:31:10.314Z,28.10
2024-03-14T22:33:44.776Z,26.20
2024-03-14T22:36:16.091Z,25.60
2024-03-14T22:38:49.070Z,27.60
2024-03-14T22:41:20.720Z,26.10
2024-03-14T22:43:52.686Z,27.00
2024-03-14T22:46:23.409Z,23.80
2024-03-14T22:48:56.809Z,26.60
2024-03-14T22:51:32.265Z,25.00
2024-03-14T22:54:05.229Z,25.10
2024-03-14T22:56:37.730Z,24.10
2024-03-14T22:59:08.655Z,27.70
2024-03-14T23:01:40.892Z,28.70
2024-03-14T23:04:12.812Z,31.70
2024-03-14T23:06:44.802Z,32.70
2024-03-14T23:09:16.029Z,35.00
2024-03-14T23:11:48.056Z,36.60
2024-03-14T23:14:18.808Z,38.00
2024-03-14T23:16:52.623Z,36.50
2024-03-14T23:19:24.208Z,35.00
2024-03-14T23:21:56.329Z,33.50
2024-03-14T23:24:27.047Z,31.50
2024-03-14T23:26:59.186Z,30.30
2024-03-14T23:29:29.957Z,30.30
2024-03-14T23:32:04.058Z,27.50
2024-03-14T23:34:35.608Z,31.70
2024-03-14T23:37:08.720Z,31.40
2024-03-14T23:39:39.406Z,33.00
2024-03-14T23:42:12.079Z,33.60
2024-03-14T23:44:42.742Z,36.40
2024-03-14T23:47:14.916Z,35.60
2024-03-14T23:49:45.747Z,36.50
2024-03-14T23:52:17.813Z,32.80
2024-03-14T23:54:48.595Z,33.10
2024-03-14T23:57:21.460Z,34.10
